createdAt,value
2023-02-17T00:00:51.697Z,7.40
2023-02-17T00:01:51.720Z,7.40
2023-02-17T00:02:51.686Z,7.42
2023-02-17T00:03:51.783Z,7.42
2023-02-17T00:04:51.704Z,7.41
2023-02-17T00:05:51.645Z,7.42
2023-02-17T00:06:51.650Z,7.42
2023-02-17T00:07:51.679Z,7.44
2023-02-17T00:08:51.695Z,7.49
2023-02-17T00:09:51.615Z,7.56
2023-02-17T00:10:51.593Z,7.58
2023-02-17T00:11:51.586Z,7.55
2023-02-17T00:12:51.613Z,7.56
2023-02-17T00:13:51.564Z,7.58
2023-02-17T00:14:51.559Z,7.58
2023-02-17T00:15:51.587Z,7.56
2023-02-17T00:16:51.592Z,7.56
2023-02-17T00:17:51.559Z,7.56
2023-02-17T00:18:51.507Z,7.55
2023-02-17T00:19:51.501Z,7.56
2023-02-17T00:20:51.495Z,7.59
2023-02-17T00:21:51.472Z,7.59
2023-02-17T00:22:51.488Z,7.62
2023-02-17T00:23:51.467Z,7.71
2023-02-17T00:24:51.446Z,7.67
2023-02-17T00:25:51.432Z,7.67
2023-02-17T00:26:51.432Z,7.66
2023-02-17T00:27:51.423Z,7.66
2023-02-17T00:28:51.415Z,7.69
2023-02-17T00:29:51.418Z,7.66
2023-02-17T00:30:51.453Z,7.66
2023-02-17T00:31:51.434Z,7.66
2023-02-17T00:32:51.428Z,7.69
2023-02-17T00:33:51.354Z,7.74
2023-02-17T00:34:51.348Z,7.71
2023-02-17T00:35:51.328Z,7.72
2023-02-17T00:36:51.323Z,7.74
2023-02-17T00:37:51.330Z,7.77
2023-02-17T00:38:51.309Z,7.77
2023-02-17T00:39:51.342Z,7.77
2023-02-17T00:40:51.281Z,7.75
2023-02-17T00:41:51.280Z,7.75
2023-02-17T00:42:51.281Z,7.77
2023-02-17T00:43:51.247Z,7.74
2023-02-17T00:44:51.289Z,7.75
2023-02-17T00:45:51.260Z,7.77
2023-02-17T00:46:51.310Z,7.82
2023-02-17T00:47:51.256Z,7.87
2023-02-17T00:48:51.259Z,7.89
2023-02-17T00:49:51.192Z,7.90
2023-02-17T00:50:51.187Z,7.90
2023-02-17T00:51:51.167Z,7.89
2023-02-17T00:52:51.195Z,7.89
2023-02-17T00:53:51.224Z,7.89
2023-02-17T00:54:51.175Z,7.87
2023-02-17T00:55:51.129Z,7.89
2023-02-17T00:56:51.139Z,7.85
2023-02-17T00:57:51.128Z,7.84
2023-02-17T00:58:51.096Z,7.87
2023-02-17T00:59:51.106Z,7.89
2023-02-17T01:00:51.114Z,7.97
2023-02-17T01:01:51.133Z,7.97
2023-02-17T01:02:51.052Z,7.97
2023-02-17T01:03:51.043Z,7.97
2023-02-17T01:04:51.104Z,7.96
2023-02-17T01:05:51.035Z,7.96
2023-02-17T01:06:51.011Z,7.93
2023-02-17T01:07:51.016Z,7.92
2023-02-17T01:08:51.034Z,7.93
2023-02-17T01:09:50.981Z,7.94
2023-02-17T01:10:50.993Z,7.94
2023-02-17T01:11:51.017Z,7.96
2023-02-17T01:12:51.004Z,7.94
2023-02-17T01:13:50.968Z,8.00
2023-02-17T01:14:50.928Z,8.00
2023-02-17T01:15:50.963Z,8.00
2023-02-17T01:16:50.906Z,7.97
2023-02-17T01:17:50.934Z,7.97
2023-02-17T01:18:50.881Z,7.97
2023-02-17T01:19:50.873Z,7.96
2023-02-17T01:20:50.879Z,7.96
2023-02-17T01:21:50.851Z,7.97
2023-02-17T01:22:50.880Z,7.97
2023-02-17T01:23:50.843Z,7.96
2023-02-17T01:24:50.830Z,7.96
2023-02-17T01:25:50.837Z,7.97
2023-02-17T01:26:50.829Z,7.93
2023-02-17T01:27:50.798Z,7.94
2023-02-17T01:28:50.783Z,7.97
2023-02-17T01:29:50.771Z,7.97
2023-02-17T01:30:50.820Z,7.97
2023-02-17T01:31:50.786Z,7.96
2023-02-17T01:32:50.750Z,7.94
2023-02-17T01:33:50.724Z,7.94
2023-02-17T01:34:50.718Z,7.97
2023-02-17T01:35:50.735Z,7.99
2023-02-17T01:36:50.700Z,7.97
2023-02-17T01:37:50.676Z,7.96
2023-02-17T01:38:50.739Z,7.94
2023-02-17T01:39:50.655Z,7.97
2023-02-17T01:40:50.669Z,7.99
2023-02-17T01:41:50.628Z,7.94
2023-02-17T01:42:50.634Z,7.96
2023-02-17T01:43:50.611Z,7.92
2023-02-17T01:44:50.610Z,7.90
2023-02-17T01:45:50.608Z,7.90
2023-02-17T01:46:50.612Z,7.89
2023-02-17T01:47:50.587Z,7.89
2023-02-17T01:48:50.576Z,7.87
2023-02-17T01:49:50.552Z,7.90
2023-02-17T01:50:50.544Z,7.87
2023-02-17T01:51:50.526Z,7.89
2023-02-17T01:52:50.551Z,7.92
2023-02-17T01:53:50.504Z,7.90
2023-02-17T01:54:50.521Z,7.92
2023-02-17T01:55:50.503Z,7.93
2023-02-17T01:56:50.479Z,7.94
2023-02-17T01:57:50.482Z,7.97
2023-02-17T01:58:50.467Z,7.96
2023-02-17T01:59:50.440Z,7.99
2023-02-17T02:00:50.458Z,7.99
2023-02-17T02:01:50.498Z,8.03
2023-02-17T02:02:50.512Z,8.03
2023-02-17T02:03:50.428Z,8.02
2023-02-17T02:04:50.423Z,8.02
2023-02-17T02:05:50.391Z,8.03
2023-02-17T02:06:50.369Z,8.02
2023-02-17T02:07:50.401Z,8.00
2023-02-17T02:08:50.359Z,8.03
2023-02-17T02:09:50.337Z,8.03
2023-02-17T02:10:50.336Z,8.04
2023-02-17T02:11:50.313Z,8.03
2023-02-17T02:12:50.309Z,8.03
2023-02-17T02:13:50.308Z,8.04
2023-02-17T02:14:50.286Z,8.04
2023-02-17T02:15:50.279Z,8.02
2023-02-17T02:16:50.263Z,8.02
2023-02-17T02:17:50.276Z,8.03
2023-02-17T02:18:50.274Z,8.03
2023-02-17T02:19:50.239Z,8.07
2023-02-17T02:20:50.236Z,8.07
2023-02-17T02:21:50.209Z,8.03
2023-02-17T02:22:50.206Z,8.04
2023-02-17T02:23:50.221Z,8.07
2023-02-17T02:24:50.186Z,8.07
2023-02-17T02:25:50.173Z,8.07
2023-02-17T02:26:50.165Z,8.04
2023-02-17T02:27:50.191Z,8.04
2023-02-17T02:28:50.155Z,8.03
2023-02-17T02:29:50.127Z,8.04
2023-02-17T02:30:50.181Z,8.07
2023-02-17T02:31:50.177Z,8.07
2023-02-17T02:32:50.105Z,8.07
2023-02-17T02:33:50.089Z,8.07
2023-02-17T02:34:50.087Z,8.07
2023-02-17T02:35:50.066Z,8.07
2023-02-17T02:36:50.100Z,8.03
2023-02-17T02:37:50.045Z,8.08
2023-02-17T02:38:50.052Z,8.07
2023-02-17T02:39:50.029Z,8.10
2023-02-17T02:40:50.019Z,8.08
2023-02-17T02:41:50.122Z,8.08
2023-02-17T02:42:49.996Z,8.10
2023-02-17T02:43:50.055Z,8.11
2023-02-17T02:44:49.978Z,8.10
2023-02-17T02:45:49.976Z,8.11
2023-02-17T02:46:50.067Z,8.11
2023-02-17T02:47:49.951Z,8.11
2023-02-17T02:48:49.952Z,8.07
2023-02-17T02:49:49.915Z,8.11
2023-02-17T02:50:49.922Z,8.11
2023-02-17T02:51:49.895Z,8.11
2023-02-17T02:52:49.892Z,8.12
2023-02-17T02:53:49.897Z,8.18
2023-02-17T02:54:49.870Z,8.14
2023-02-17T02:55:49.851Z,8.17
2023-02-17T02:56:49.846Z,8.18
2023-02-17T02:57:49.841Z,8.17
2023-02-17T02:58:49.852Z,8.17
2023-02-17T02:59:49.814Z,8.17
2023-02-17T03:00:49.807Z,8.17
2023-02-17T03:01:49.849Z,8.17
2023-02-17T03:02:49.787Z,8.14
2023-02-17T03:03:49.806Z,8.21
2023-02-17T03:04:49.761Z,8.18
2023-02-17T03:05:49.746Z,8.15
2023-02-17T03:06:49.739Z,8.17
2023-02-17T03:07:49.724Z,8.21
2023-02-17T03:08:49.736Z,8.22
2023-02-17T03:09:49.714Z,8.21
2023-02-17T03:10:49.699Z,8.20
2023-02-17T03:11:49.684Z,8.18
2023-02-17T03:12:49.696Z,8.22
2023-02-17T03:13:49.694Z,8.25
2023-02-17T03:14:49.654Z,8.22
2023-02-17T03:15:49.656Z,8.26
2023-02-17T03:16:49.668Z,8.22
2023-02-17T03:17:49.625Z,8.21
2023-02-17T03:18:49.635Z,8.21
2023-02-17T03:19:49.622Z,8.17
2023-02-17T03:20:49.593Z,8.20
2023-02-17T03:21:49.587Z,8.14
2023-02-17T03:22:49.567Z,8.17
2023-02-17T03:23:49.642Z,8.15
2023-02-17T03:24:49.554Z,8.17
2023-02-17T03:25:49.570Z,8.21
2023-02-17T03:26:49.561Z,8.22
2023-02-17T03:27:49.523Z,8.26
2023-02-17T03:28:49.528Z,8.28
2023-02-17T03:29:49.514Z,8.30
2023-02-17T03:30:49.502Z,8.29
2023-02-17T03:31:49.535Z,8.30
2023-02-17T03:32:49.468Z,8.32
2023-02-17T03:33:49.522Z,8.32
2023-02-17T03:34:49.476Z,8.29
2023-02-17T03:35:49.439Z,8.32
2023-02-17T03:36:49.436Z,8.32
2023-02-17T03:37:49.441Z,8.37
2023-02-17T03:38:49.424Z,8.33
2023-02-17T03:39:49.407Z,8.32
2023-02-17T03:40:49.383Z,8.32
2023-02-17T03:41:49.381Z,8.32
2023-02-17T03:42:49.383Z,8.29
2023-02-17T03:43:49.370Z,8.28
2023-02-17T03:44:49.346Z,8.28
2023-02-17T03:45:49.375Z,8.30
2023-02-17T03:46:49.326Z,8.33
2023-02-17T03:47:49.319Z,8.35
2023-02-17T03:48:49.345Z,8.33
2023-02-17T03:49:49.299Z,8.33
2023-02-17T03:50:49.308Z,8.36
2023-02-17T03:51:49.314Z,8.33
2023-02-17T03:52:49.272Z,8.36
2023-02-17T03:53:49.301Z,8.33
2023-02-17T03:54:49.254Z,8.33
2023-02-17T03:55:49.264Z,8.35
2023-02-17T03:56:49.216Z,8.33
2023-02-17T03:57:49.222Z,8.30
2023-02-17T03:58:49.227Z,8.30
2023-02-17T03:59:49.201Z,8.32
2023-02-17T04:00:49.197Z,8.32
2023-02-17T04:01:49.301Z,8.32
2023-02-17T04:02:49.179Z,8.33
2023-02-17T04:03:49.189Z,8.35
2023-02-17T04:04:49.144Z,8.33
2023-02-17T04:05:49.136Z,8.33
2023-02-17T04:06:49.124Z,8.35
2023-02-17T04:07:49.145Z,8.35
2023-02-17T04:08:49.119Z,8.35
2023-02-17T04:09:49.092Z,8.37
2023-02-17T04:10:49.085Z,8.37
2023-02-17T04:11:49.086Z,8.40
2023-02-17T04:12:49.054Z,8.39
2023-02-17T04:13:49.070Z,8.40
2023-02-17T04:14:49.030Z,8.40
2023-02-17T04:15:49.137Z,8.40
2023-02-17T04:16:49.018Z,8.42
2023-02-17T04:17:49.043Z,8.44
2023-02-17T04:18:49.027Z,8.42
2023-02-17T04:19:49.002Z,8.45
2023-02-17T04:20:48.977Z,8.48
2023-02-17T04:21:48.987Z,8.45
2023-02-17T04:22:48.955Z,8.45
2023-02-17T04:23:48.990Z,8.45
2023-02-17T04:24:48.934Z,8.47
2023-02-17T04:25:49.010Z,8.45
2023-02-17T04:26:48.975Z,8.42
2023-02-17T04:27:48.966Z,8.47
2023-02-17T04:28:48.966Z,8.47
2023-02-17T04:29:48.884Z,8.50
2023-02-17T04:30:48.887Z,8.57
2023-02-17T04:31:48.936Z,8.54
2023-02-17T04:32:48.890Z,8.51
2023-02-17T04:33:48.886Z,8.48
2023-02-17T04:34:48.835Z,8.50
2023-02-17T04:35:48.864Z,8.47
2023-02-17T04:36:48.805Z,8.48
2023-02-17T04:37:48.836Z,8.48
2023-02-17T04:38:48.823Z,8.50
2023-02-17T04:39:48.797Z,8.48
2023-02-17T04:40:48.798Z,8.47
2023-02-17T04:41:48.775Z,8.47
2023-02-17T04:42:48.757Z,8.54
2023-02-17T04:43:48.801Z,8.54
2023-02-17T04:44:48.800Z,8.53
2023-02-17T04:45:48.753Z,8.50
2023-02-17T04:46:48.708Z,8.50
2023-02-17T04:47:48.702Z,8.51
2023-02-17T04:48:48.741Z,8.50
2023-02-17T04:49:48.687Z,8.51
2023-02-17T04:50:48.685Z,8.50
2023-02-17T04:51:48.702Z,8.50
2023-02-17T04:52:48.666Z,8.48
2023-02-17T04:53:48.668Z,8.47
2023-02-17T04:54:48.700Z,8.51
2023-02-17T04:55:48.621Z,8.50
2023-02-17T04:56:48.620Z,8.54
2023-02-17T04:57:48.640Z,8.54
2023-02-17T04:58:48.620Z,8.53
2023-02-17T04:59:48.586Z,8.53
2023-02-17T05:00:48.595Z,8.51
2023-02-17T05:01:48.556Z,8.50
2023-02-17T05:02:48.546Z,8.53
2023-02-17T05:03:48.592Z,8.53
2023-02-17T05:04:48.686Z,8.51
2023-02-17T05:05:48.517Z,8.51
2023-02-17T05:06:48.502Z,8.54
2023-02-17T05:07:48.499Z,8.54
2023-02-17T05:08:48.477Z,8.55
2023-02-17T05:09:48.498Z,8.53
2023-02-17T05:10:48.463Z,8.51
2023-02-17T05:11:48.473Z,8.50
2023-02-17T05:12:48.453Z,8.53
2023-02-17T05:13:48.443Z,8.53
2023-02-17T05:14:48.459Z,8.53
2023-02-17T05:15:48.450Z,8.51
2023-02-17T05:16:48.444Z,8.48
2023-02-17T05:17:48.408Z,8.50
2023-02-17T05:18:48.388Z,8.45
2023-02-17T05:19:48.421Z,8.45
2023-02-17T05:20:48.362Z,8.47
2023-02-17T05:21:48.373Z,8.45
2023-02-17T05:22:48.343Z,8.47
2023-02-17T05:23:48.363Z,8.47
2023-02-17T05:24:48.387Z,8.48
2023-02-17T05:25:48.348Z,8.45
2023-02-17T05:26:48.308Z,8.45
2023-02-17T05:27:48.393Z,8.48
2023-02-17T05:28:48.291Z,8.45
2023-02-17T05:29:48.298Z,8.47
2023-02-17T05:30:48.379Z,8.45
2023-02-17T05:31:48.423Z,8.48
2023-02-17T05:32:48.263Z,8.50
2023-02-17T05:33:48.245Z,8.50
2023-02-17T05:34:48.245Z,8.47
2023-02-17T05:35:48.224Z,8.45
2023-02-17T05:36:48.267Z,8.51
2023-02-17T05:37:48.206Z,8.50
2023-02-17T05:38:48.190Z,8.53
2023-02-17T05:39:48.227Z,8.53
2023-02-17T05:40:48.176Z,8.57
2023-02-17T05:41:48.215Z,8.58
2023-02-17T05:42:48.143Z,8.57
2023-02-17T05:43:48.138Z,8.54
2023-02-17T05:44:48.168Z,8.55
2023-02-17T05:45:48.169Z,8.55
2023-02-17T05:46:48.143Z,8.55
2023-02-17T05:47:48.105Z,8.57
2023-02-17T05:48:48.092Z,8.60
2023-02-17T05:49:48.119Z,8.58
2023-02-17T05:50:48.067Z,8.62
2023-02-17T05:51:48.252Z,8.60
2023-02-17T05:52:48.041Z,8.62
2023-02-17T05:53:48.034Z,8.62
2023-02-17T05:54:48.038Z,8.60
2023-02-17T05:55:48.923Z,8.63
2023-02-17T05:56:48.036Z,8.65
2023-02-17T05:57:48.002Z,8.66
2023-02-17T05:58:48.017Z,8.66
2023-02-17T05:59:47.986Z,8.62
2023-02-17T06:00:47.977Z,8.58
2023-02-17T06:01:47.990Z,8.57
2023-02-17T06:02:47.983Z,8.57
2023-02-17T06:03:47.895Z,8.57
2023-02-17T06:04:48.013Z,8.58
2023-02-17T06:05:47.865Z,8.60
2023-02-17T06:06:47.903Z,8.57
2023-02-17T06:07:47.876Z,8.60
2023-02-17T06:08:47.828Z,8.63
2023-02-17T06:09:47.833Z,8.65
2023-02-17T06:10:47.827Z,8.66
2023-02-17T06:11:47.800Z,8.72
2023-02-17T06:12:47.791Z,8.72
2023-02-17T06:13:47.778Z,8.68
2023-02-17T06:14:47.787Z,8.66
2023-02-17T06:15:47.825Z,8.65
2023-02-17T06:16:47.739Z,8.58
2023-02-17T06:17:47.775Z,8.60
2023-02-17T06:18:47.773Z,8.69
2023-02-17T06:19:47.743Z,8.79
2023-02-17T06:20:47.710Z,8.76
2023-02-17T06:21:47.696Z,8.75
2023-02-17T06:22:47.701Z,8.75
2023-02-17T06:23:47.693Z,8.83
2023-02-17T06:24:47.717Z,8.87
2023-02-17T06:25:47.679Z,8.84
2023-02-17T06:26:47.664Z,8.86
2023-02-17T06:27:47.717Z,8.84
2023-02-17T06:28:47.697Z,8.79
2023-02-17T06:29:47.647Z,8.79
2023-02-17T06:30:47.603Z,8.79
2023-02-17T06:31:47.748Z,8.79
2023-02-17T06:32:47.636Z,8.79
2023-02-17T06:33:47.577Z,8.78
2023-02-17T06:34:47.582Z,8.75
2023-02-17T06:35:47.564Z,8.73
2023-02-17T06:36:47.553Z,8.71
2023-02-17T06:37:47.530Z,8.72
2023-02-17T06:38:47.538Z,8.78
2023-02-17T06:39:47.531Z,8.83
2023-02-17T06:40:47.519Z,8.81
2023-02-17T06:41:47.495Z,8.84
2023-02-17T06:42:47.485Z,8.84
2023-02-17T06:43:47.472Z,8.83
2023-02-17T06:44:47.490Z,8.81
2023-02-17T06:45:47.485Z,8.79
2023-02-17T06:46:47.437Z,8.79
2023-02-17T06:47:47.433Z,8.81
2023-02-17T06:48:47.411Z,8.83
2023-02-17T06:49:47.427Z,8.83
2023-02-17T06:50:47.390Z,8.84
2023-02-17T06:51:47.385Z,8.87
2023-02-17T06:52:47.373Z,8.88
2023-02-17T06:53:47.370Z,8.96
2023-02-17T06:54:47.366Z,8.97
2023-02-17T06:55:47.374Z,8.93
2023-02-17T06:56:47.331Z,8.93
2023-02-17T06:57:47.330Z,8.93
2023-02-17T06:58:47.308Z,8.88
2023-02-17T06:59:47.343Z,8.87
2023-02-17T07:00:47.295Z,8.88
2023-02-17T07:01:47.364Z,8.88
2023-02-17T07:02:47.433Z,8.97
2023-02-17T07:03:47.261Z,9.05
2023-02-17T07:04:47.312Z,9.12
2023-02-17T07:05:47.277Z,9.12
2023-02-17T07:06:47.231Z,9.09
2023-02-17T07:07:47.278Z,9.09
2023-02-17T07:08:47.249Z,9.06
2023-02-17T07:09:47.220Z,9.04
2023-02-17T07:10:47.192Z,9.02
2023-02-17T07:11:47.191Z,9.01
2023-02-17T07:12:47.178Z,9.02
2023-02-17T07:13:47.225Z,9.01
2023-02-17T07:14:47.168Z,8.97
2023-02-17T07:15:47.150Z,9.02
2023-02-17T07:16:47.201Z,9.02
2023-02-17T07:17:47.135Z,9.09
2023-02-17T07:18:47.111Z,9.13
2023-02-17T07:19:47.127Z,9.20
2023-02-17T07:20:47.106Z,9.28
2023-02-17T07:21:47.093Z,9.30
2023-02-17T07:22:47.089Z,9.30
2023-02-17T07:23:47.089Z,9.27
2023-02-17T07:24:47.075Z,9.25
2023-02-17T07:25:47.063Z,9.23
2023-02-17T07:26:47.040Z,9.23
2023-02-17T07:27:47.036Z,9.23
2023-02-17T07:28:47.010Z,9.20
2023-02-17T07:29:47.066Z,9.20
2023-02-17T07:30:47.025Z,9.21
2023-02-17T07:31:47.152Z,9.24
2023-02-17T07:32:47.030Z,9.23
2023-02-17T07:33:46.970Z,9.27
2023-02-17T07:34:46.974Z,9.25
2023-02-17T07:35:46.940Z,9.28
2023-02-17T07:36:46.943Z,9.30
2023-02-17T07:37:46.920Z,9.35
2023-02-17T07:38:46.913Z,9.42
2023-02-17T07:39:46.914Z,9.39
2023-02-17T07:40:46.890Z,9.39
2023-02-17T07:41:46.875Z,9.34
2023-02-17T07:42:46.875Z,9.31
2023-02-17T07:43:46.858Z,9.35
2023-02-17T07:44:46.874Z,9.38
2023-02-17T07:45:46.849Z,9.39
2023-02-17T07:46:46.843Z,9.40
2023-02-17T07:47:46.823Z,9.42
2023-02-17T07:48:47.076Z,9.40
2023-02-17T07:49:46.819Z,9.40
2023-02-17T07:50:46.792Z,9.42
2023-02-17T07:51:46.784Z,9.46
2023-02-17T07:52:46.792Z,9.50
2023-02-17T07:53:46.785Z,9.57
2023-02-17T07:54:46.789Z,9.58
2023-02-17T07:55:46.741Z,9.60
2023-02-17T07:56:46.771Z,9.61
2023-02-17T07:57:46.726Z,9.61
2023-02-17T07:58:46.721Z,9.61
2023-02-17T07:59:46.711Z,9.58
2023-02-17T08:00:46.689Z,9.52
2023-02-17T08:01:46.691Z,9.57
2023-02-17T08:02:46.686Z,9.58
2023-02-17T08:03:46.659Z,9.61
2023-02-17T08:04:46.687Z,9.63
2023-02-17T08:05:48.812Z,9.63
2023-02-17T08:06:46.628Z,9.63
2023-02-17T08:07:46.627Z,9.63
2023-02-17T08:08:46.608Z,9.64
2023-02-17T08:09:46.631Z,9.63
2023-02-17T08:10:46.599Z,9.66
2023-02-17T08:11:48.826Z,9.68
2023-02-17T08:12:46.592Z,9.68
2023-02-17T08:13:46.629Z,9.61
2023-02-17T08:14:46.569Z,9.67
2023-02-17T08:15:46.546Z,9.70
2023-02-17T08:16:46.648Z,9.78
2023-02-17T08:17:46.529Z,9.78
2023-02-17T08:18:46.525Z,9.79
2023-02-17T08:19:48.909Z,9.85
2023-02-17T08:20:46.522Z,9.83
2023-02-17T08:21:46.489Z,9.89
2023-02-17T08:22:46.465Z,9.83
2023-02-17T08:23:46.461Z,9.88
2023-02-17T08:24:46.521Z,9.86
2023-02-17T08:25:46.461Z,9.83
2023-02-17T08:26:46.431Z,9.81
2023-02-17T08:27:46.412Z,9.81
2023-02-17T08:28:46.402Z,9.78
2023-02-17T08:29:46.409Z,9.81
2023-02-17T08:30:46.534Z,9.73
2023-02-17T08:31:46.542Z,9.68
2023-02-17T08:32:46.364Z,9.68
2023-02-17T08:33:46.366Z,9.66
2023-02-17T08:34:46.349Z,9.67
2023-02-17T08:35:46.353Z,9.68
2023-02-17T08:36:46.341Z,9.68
2023-02-17T08:37:46.342Z,9.73
2023-02-17T08:38:46.311Z,9.71
2023-02-17T08:39:46.341Z,9.71
2023-02-17T08:40:46.317Z,9.75
2023-02-17T08:41:46.273Z,9.79
2023-02-17T08:42:46.286Z,9.81
2023-02-17T08:43:46.285Z,9.83
2023-02-17T08:44:46.295Z,9.82
2023-02-17T08:45:46.370Z,9.82
2023-02-17T08:46:46.230Z,9.85
2023-02-17T08:47:46.226Z,9.83
2023-02-17T08:48:46.209Z,9.83
2023-02-17T08:49:46.181Z,9.88
2023-02-17T08:50:46.202Z,9.86
2023-02-17T08:51:46.177Z,9.88
2023-02-17T08:52:46.157Z,9.93
2023-02-17T08:53:46.140Z,9.88
2023-02-17T08:54:46.144Z,9.88
2023-02-17T08:55:49.633Z,9.89
2023-02-17T08:56:46.144Z,9.86
2023-02-17T08:57:46.148Z,9.86
2023-02-17T08:58:46.096Z,9.83
2023-02-17T08:59:46.144Z,9.85
2023-02-17T09:00:46.144Z,9.85
2023-02-17T09:01:46.138Z,9.86
2023-02-17T09:02:46.063Z,9.88
2023-02-17T09:03:46.043Z,9.88
2023-02-17T09:04:46.053Z,9.91
2023-02-17T09:05:46.038Z,9.93
2023-02-17T09:06:46.020Z,9.94
2023-02-17T09:07:46.046Z,9.97
2023-02-17T09:08:46.061Z,9.94
2023-02-17T09:09:45.969Z,9.96
2023-02-17T09:10:46.027Z,9.96
2023-02-17T09:11:45.980Z,9.96
2023-02-17T09:12:45.947Z,9.99
2023-02-17T09:13:45.957Z,9.99
2023-02-17T09:14:45.922Z,10.03
2023-02-17T09:15:45.979Z,10.06
2023-02-17T09:16:45.942Z,10.06
2023-02-17T09:17:45.905Z,10.03
2023-02-17T09:18:45.893Z,10.06
2023-02-17T09:19:45.875Z,10.03
2023-02-17T09:20:45.886Z,10.04
2023-02-17T09:21:45.849Z,10.06
2023-02-17T09:22:45.900Z,10.04
2023-02-17T09:23:45.884Z,10.03
2023-02-17T09:24:45.885Z,10.07
2023-02-17T09:25:45.878Z,10.09
2023-02-17T09:26:45.812Z,10.07
2023-02-17T09:27:45.793Z,10.07
2023-02-17T09:28:45.783Z,10.04
2023-02-17T09:29:45.794Z,10.07
2023-02-17T09:30:45.966Z,10.07
2023-02-17T09:31:45.911Z,10.06
2023-02-17T09:32:45.738Z,10.10
2023-02-17T09:33:45.738Z,10.12
2023-02-17T09:34:45.738Z,10.09
2023-02-17T09:35:45.719Z,10.07
2023-02-17T09:36:45.772Z,10.09
2023-02-17T09:37:45.717Z,10.14
2023-02-17T09:38:45.740Z,10.14
2023-02-17T09:39:45.769Z,10.15
2023-02-17T09:40:45.732Z,10.17
2023-02-17T09:41:45.718Z,10.19
2023-02-17T09:42:45.651Z,10.18
2023-02-17T09:43:45.630Z,10.19
2023-02-17T09:44:45.617Z,10.18
2023-02-17T09:45:45.613Z,10.19
2023-02-17T09:47:00.654Z,10.19
2023-02-17T09:47:45.654Z,10.25
2023-02-17T09:48:45.595Z,10.28
2023-02-17T09:49:45.709Z,10.28
2023-02-17T09:50:45.587Z,10.32
2023-02-17T09:51:45.572Z,10.33
2023-02-17T09:52:45.594Z,10.33
2023-02-17T09:53:45.518Z,10.33
2023-02-17T09:54:45.540Z,10.32
2023-02-17T09:55:45.586Z,10.30
2023-02-17T09:56:45.513Z,10.30
2023-02-17T09:57:45.494Z,10.28
2023-02-17T09:58:45.578Z,10.26
2023-02-17T09:59:45.544Z,10.26
2023-02-17T10:00:45.506Z,10.30
2023-02-17T10:01:45.535Z,10.30
2023-02-17T10:02:45.589Z,10.28
2023-02-17T10:03:45.435Z,10.30
2023-02-17T10:04:45.520Z,10.32
2023-02-17T10:05:45.480Z,10.34
2023-02-17T10:06:45.414Z,10.39
2023-02-17T10:07:45.449Z,10.40
2023-02-17T10:08:45.486Z,10.42
2023-02-17T10:09:45.487Z,10.46
2023-02-17T10:10:45.385Z,10.44
2023-02-17T10:11:45.345Z,10.51
2023-02-17T10:12:45.414Z,10.56
2023-02-17T10:13:45.373Z,10.59
2023-02-17T10:14:45.345Z,10.55
2023-02-17T10:15:45.374Z,10.56
2023-02-17T10:16:45.346Z,10.58
2023-02-17T10:17:45.306Z,10.62
2023-02-17T10:18:45.395Z,10.63
2023-02-17T10:19:45.272Z,10.62
2023-02-17T10:20:45.340Z,10.68
2023-02-17T10:21:45.252Z,10.68
2023-02-17T10:22:45.204Z,10.77
2023-02-17T10:23:45.214Z,10.74
2023-02-17T10:24:45.234Z,10.71
2023-02-17T10:25:45.169Z,10.70
2023-02-17T10:26:45.478Z,10.77
2023-02-17T10:27:45.329Z,10.76
2023-02-17T10:28:45.209Z,10.70
2023-02-17T10:29:45.169Z,10.78
2023-02-17T10:30:45.352Z,10.88
2023-02-17T10:31:45.300Z,10.99
2023-02-17T10:32:45.314Z,11.09
2023-02-17T10:33:45.102Z,11.11
2023-02-17T10:34:45.084Z,11.09
2023-02-17T10:35:45.185Z,11.11
2023-02-17T10:36:45.261Z,11.19
2023-02-17T10:37:45.062Z,11.27
2023-02-17T10:38:45.044Z,11.29
2023-02-17T10:39:45.034Z,11.36
2023-02-17T10:40:45.063Z,11.36
2023-02-17T10:41:45.024Z,11.41
2023-02-17T10:42:45.010Z,11.43
2023-02-17T10:43:45.004Z,11.38
2023-02-17T10:44:45.027Z,11.49
2023-02-17T10:45:44.992Z,11.50
2023-02-17T10:46:45.012Z,11.61
2023-02-17T10:47:44.964Z,11.65
2023-02-17T10:48:44.949Z,11.74
2023-02-17T10:49:44.936Z,11.77
2023-02-17T10:50:44.971Z,11.85
2023-02-17T10:51:44.903Z,11.78
2023-02-17T10:52:44.906Z,11.78
2023-02-17T10:53:44.884Z,11.87
2023-02-17T10:54:44.883Z,11.93
2023-02-17T10:55:44.886Z,11.93
2023-02-17T10:56:44.880Z,12.09
2023-02-17T10:57:44.841Z,12.01
2023-02-17T10:58:44.845Z,11.90
2023-02-17T10:59:44.840Z,11.90
2023-02-17T11:00:44.851Z,12.04
2023-02-17T11:01:44.927Z,12.05
2023-02-17T11:02:44.804Z,11.96
2023-02-17T11:03:44.835Z,11.77
2023-02-17T11:04:44.777Z,11.78
2023-02-17T11:05:44.768Z,11.83
2023-02-17T11:06:44.780Z,11.99
2023-02-17T11:07:44.737Z,12.05
2023-02-17T11:08:44.735Z,12.15
2023-02-17T11:09:44.889Z,12.37
2023-02-17T11:10:44.778Z,12.29
2023-02-17T11:11:44.708Z,12.26
2023-02-17T11:12:44.687Z,12.42
2023-02-17T11:13:44.674Z,12.42
2023-02-17T11:14:44.666Z,12.59
2023-02-17T11:15:44.658Z,12.62
2023-02-17T11:16:44.718Z,12.70
2023-02-17T11:17:45.589Z,12.84
2023-02-17T11:18:44.805Z,12.85
2023-02-17T11:19:44.702Z,13.06
2023-02-17T11:20:44.602Z,13.22
2023-02-17T11:21:44.611Z,14.02
2023-02-17T11:22:44.655Z,14.68
2023-02-17T11:23:44.606Z,14.31
2023-02-17T11:24:44.570Z,14.44
2023-02-17T11:25:44.556Z,14.42
2023-02-17T11:26:44.545Z,14.19
2023-02-17T11:27:44.529Z,13.89
2023-02-17T11:28:44.582Z,13.95
2023-02-17T11:29:44.520Z,14.14
2023-02-17T11:30:44.500Z,14.27
2023-02-17T11:31:44.567Z,13.74
2023-02-17T11:32:44.517Z,14.06
2023-02-17T11:33:44.522Z,14.24
2023-02-17T11:34:44.504Z,14.50
2023-02-17T11:35:44.472Z,14.20
2023-02-17T11:36:44.527Z,13.87
2023-02-17T11:37:44.436Z,13.76
2023-02-17T11:38:44.415Z,14.14
2023-02-17T11:39:44.401Z,14.90
2023-02-17T11:40:44.410Z,14.68
2023-02-17T11:41:44.398Z,14.83
2023-02-17T11:42:44.407Z,15.48
2023-02-17T11:43:44.380Z,15.39
2023-02-17T11:44:44.410Z,15.85
2023-02-17T11:45:44.448Z,15.30
2023-02-17T11:46:44.341Z,15.39
2023-02-17T11:47:44.373Z,15.12
2023-02-17T11:48:44.337Z,14.52
2023-02-17T11:49:44.309Z,14.25
2023-02-17T11:50:44.291Z,14.07
2023-02-17T11:51:44.311Z,13.80
2023-02-17T11:52:44.278Z,13.89
2023-02-17T11:53:44.276Z,13.89
2023-02-17T11:54:44.255Z,13.95
2023-02-17T11:55:44.246Z,13.91
2023-02-17T11:56:44.252Z,13.77
2023-02-17T11:57:45.597Z,13.65
2023-02-17T11:58:44.215Z,13.88
2023-02-17T11:59:44.236Z,14.27
2023-02-17T12:00:44.193Z,14.27
2023-02-17T12:01:44.210Z,13.92
2023-02-17T12:02:44.165Z,13.83
2023-02-17T12:03:44.170Z,13.87
2023-02-17T12:04:44.161Z,14.04
2023-02-17T12:05:44.142Z,14.06
2023-02-17T12:06:44.189Z,13.98
2023-02-17T12:07:44.142Z,14.02
2023-02-17T12:08:45.778Z,14.29
2023-02-17T12:09:44.127Z,14.14
2023-02-17T12:10:44.089Z,13.89
2023-02-17T12:11:44.092Z,14.04
2023-02-17T12:12:44.114Z,14.29
2023-02-17T12:13:44.094Z,14.39
2023-02-17T12:14:44.045Z,14.27
2023-02-17T12:15:44.046Z,14.09
2023-02-17T12:16:44.116Z,14.21
2023-02-17T12:17:44.009Z,14.24
2023-02-17T12:18:44.012Z,14.31
2023-02-17T12:19:43.999Z,14.07
2023-02-17T12:20:43.985Z,14.14
2023-02-17T12:21:44.005Z,14.14
2023-02-17T12:22:44.007Z,13.80
2023-02-17T12:23:43.954Z,13.58
2023-02-17T12:24:43.937Z,13.49
2023-02-17T12:25:43.925Z,13.63
2023-02-17T12:26:43.943Z,13.43
2023-02-17T12:27:43.920Z,13.20
2023-02-17T12:28:43.898Z,13.20
2023-02-17T12:29:43.892Z,13.15
2023-02-17T12:30:44.177Z,13.15
2023-02-17T12:31:44.095Z,13.18
2023-02-17T12:32:43.864Z,13.38
2023-02-17T12:33:43.840Z,13.30
2023-02-17T12:34:43.882Z,13.49
2023-02-17T12:35:43.839Z,14.12
2023-02-17T12:36:43.822Z,13.99
2023-02-17T12:37:43.808Z,13.94
2023-02-17T12:38:43.782Z,13.67
2023-02-17T12:39:43.777Z,13.61
2023-02-17T12:40:43.770Z,13.69
2023-02-17T12:41:43.972Z,13.46
2023-02-17T12:42:43.750Z,13.49
2023-02-17T12:43:43.741Z,13.51
2023-02-17T12:44:43.744Z,13.47
2023-02-17T12:45:43.748Z,13.36
2023-02-17T12:46:43.734Z,13.22
2023-02-17T12:47:43.711Z,13.29
2023-02-17T12:48:43.678Z,13.37
2023-02-17T12:49:43.672Z,13.37
2023-02-17T12:50:43.660Z,13.32
2023-02-17T12:51:43.679Z,13.15
2023-02-17T12:52:43.640Z,13.11
2023-02-17T12:53:43.632Z,12.99
2023-02-17T12:54:43.718Z,13.00
2023-02-17T12:55:43.627Z,12.96
2023-02-17T12:56:43.620Z,12.81
2023-02-17T12:57:43.598Z,12.66
2023-02-17T12:58:43.589Z,12.59
2023-02-17T12:59:43.597Z,12.52
2023-02-17T13:00:43.640Z,12.46
2023-02-17T13:01:43.608Z,12.44
2023-02-17T13:02:43.669Z,12.37
2023-02-17T13:03:43.540Z,12.30
2023-02-17T13:04:43.542Z,12.21
2023-02-17T13:05:43.509Z,12.19
2023-02-17T13:06:43.515Z,12.12
2023-02-17T13:07:43.510Z,12.12
2023-02-17T13:08:43.560Z,12.11
2023-02-17T13:09:43.490Z,12.11
2023-02-17T13:10:43.463Z,12.08